sensor_id;sensor_type;location;lat;lon;timestamp;P1;durP1;ratioP1;P2;durP2;ratioP2
17826;SDS011;9038;48.208;16.308;2024-01-30T00:00:52;18.27;;;10.60;;
17826;SDS011;9038;48.208;16.308;2024-01-30T00:02:54;14.17;;;10.00;;
17826;SDS011;9038;48.208;16.308;2024-01-30T00:04:55;20.70;;;10.83;;
17826;SDS011;9038;48.208;16.308;2024-01-30T00:06:56;20.17;;;10.73;;
17826;SDS011;9038;48.208;16.308;2024-01-30T00:08:58;17.20;;;11.17;;
17826;SDS011;9038;48.208;16.308;2024-01-30T00:11:01;17.23;;;11.40;;
17826;SDS011;9038;48.208;16.308;2024-01-30T00:13:04;15.33;;;10.87;;
17826;SDS011;9038;48.208;16.308;2024-01-30T00:15:05;14.90;;;9.90;;
17826;SDS011;9038;48.208;16.308;2024-01-30T00:17:09;14.57;;;10.30;;
17826;SDS011;9038;48.208;16.308;2024-01-30T00:19:11;16.87;;;11.23;;
17826;SDS011;9038;48.208;16.308;2024-01-30T00:21:13;18.80;;;11.33;;
17826;SDS011;9038;48.208;16.308;2024-01-30T00:23:14;18.30;;;11.40;;
17826;SDS011;9038;48.208;16.308;2024-01-30T00:25:16;16.57;;;10.50;;
17826;SDS011;9038;48.208;16.308;2024-01-30T00:27:18;17.50;;;11.73;;
17826;SDS011;9038;48.208;16.308;2024-01-30T00:29:20;17.40;;;11.13;;
17826;SDS011;9038;48.208;16.308;2024-01-30T00:31:22;20.27;;;11.23;;
17826;SDS011;9038;48.208;16.308;2024-01-30T00:33:24;15.87;;;10.97;;
17826;SDS011;9038;48.208;16.308;2024-01-30T00:35:26;18.13;;;10.67;;
17826;SDS011;9038;48.208;16.308;2024-01-30T00:37:29;16.63;;;10.87;;
17826;SDS011;9038;48.208;16.308;2024-01-30T00:39:31;19.33;;;11.30;;
17826;SDS011;9038;48.208;16.308;2024-01-30T00:41:33;16.03;;;10.67;;
17826;SDS011;9038;48.208;16.308;2024-01-30T00:43:36;17.60;;;10.43;;
17826;SDS011;9038;48.208;16.308;2024-01-30T00:45:39;15.93;;;11.00;;
17826;SDS011;9038;48.208;16.308;2024-01-30T00:47:39;14.97;;;10.77;;
17826;SDS011;9038;48.208;16.308;2024-01-30T00:49:41;13.63;;;10.57;;
17826;SDS011;9038;48.208;16.308;2024-01-30T00:51:43;15.80;;;11.23;;
17826;SDS011;9038;48.208;16.308;2024-01-30T00:53:45;16.17;;;10.93;;
17826;SDS011;9038;48.208;16.308;2024-01-30T00:55:47;16.83;;;10.83;;
17826;SDS011;9038;48.208;16.308;2024-01-30T00:57:49;15.73;;;11.07;;
17826;SDS011;9038;48.208;16.308;2024-01-30T00:59:52;19.27;;;11.30;;
17826;SDS011;9038;48.208;16.308;2024-01-30T01:01:54;14.67;;;10.33;;
17826;SDS011;9038;48.208;16.308;2024-01-30T01:03:56;14.33;;;10.47;;
17826;SDS011;9038;48.208;16.308;2024-01-30T01:05:58;15.80;;;10.50;;
17826;SDS011;9038;48.208;16.308;2024-01-30T01:08:00;17.23;;;10.63;;
17826;SDS011;9038;48.208;16.308;2024-01-30T01:10:02;16.57;;;9.80;;
17826;SDS011;9038;48.208;16.308;2024-01-30T01:12:04;17.23;;;11.10;;
17826;SDS011;9038;48.208;16.308;2024-01-30T01:14:07;14.80;;;10.77;;
17826;SDS011;9038;48.208;16.308;2024-01-30T01:16:10;17.67;;;10.93;;
17826;SDS011;9038;48.208;16.308;2024-01-30T01:18:12;17.90;;;10.50;;
17826;SDS011;9038;48.208;16.308;2024-01-30T01:20:14;14.83;;;10.83;;
17826;SDS011;9038;48.208;16.308;2024-01-30T01:22:16;11.63;;;9.20;;
17826;SDS011;9038;48.208;16.308;2024-01-30T01:24:18;18.43;;;11.20;;
17826;SDS011;9038;48.208;16.308;2024-01-30T01:26:20;20.60;;;11.20;;
17826;SDS011;9038;48.208;16.308;2024-01-30T01:28:21;18.33;;;11.00;;
17826;SDS011;9038;48.208;16.308;2024-01-30T01:30:23;17.37;;;11.03;;
17826;SDS011;9038;48.208;16.308;2024-01-30T01:32:27;14.87;;;10.70;;
17826;SDS011;9038;48.208;16.308;2024-01-30T01:34:29;21.63;;;10.97;;
17826;SDS011;9038;48.208;16.308;2024-01-30T01:36:31;16.10;;;10.97;;
17826;SDS011;9038;48.208;16.308;2024-01-30T01:38:33;17.87;;;11.27;;
17826;SDS011;9038;48.208;16.308;2024-01-30T01:40:33;20.43;;;11.97;;
17826;SDS011;9038;48.208;16.308;2024-01-30T01:42:35;14.67;;;10.60;;
17826;SDS011;9038;48.208;16.308;2024-01-30T01:44:38;17.07;;;11.37;;
17826;SDS011;9038;48.208;16.308;2024-01-30T01:46:40;17.17;;;10.97;;
17826;SDS011;9038;48.208;16.308;2024-01-30T01:48:43;18.83;;;11.17;;
17826;SDS011;9038;48.208;16.308;2024-01-30T01:50:45;16.27;;;10.47;;
17826;SDS011;9038;48.208;16.308;2024-01-30T01:52:46;17.40;;;10.43;;
17826;SDS011;9038;48.208;16.308;2024-01-30T01:54:49;18.43;;;11.13;;
17826;SDS011;9038;48.208;16.308;2024-01-30T01:56:49;18.80;;;10.57;;
17826;SDS011;9038;48.208;16.308;2024-01-30T01:58:53;17.70;;;10.60;;
17826;SDS011;9038;48.208;16.308;2024-01-30T02:00:56;19.63;;;10.77;;
17826;SDS011;9038;48.208;16.308;2024-01-30T02:02:59;19.07;;;11.40;;
17826;SDS011;9038;48.208;16.308;2024-01-30T02:05:04;16.43;;;10.17;;
17826;SDS011;9038;48.208;16.308;2024-01-30T02:07:06;17.40;;;10.83;;
17826;SDS011;9038;48.208;16.308;2024-01-30T02:09:08;17.30;;;10.67;;
17826;SDS011;9038;48.208;16.308;2024-01-30T02:11:10;18.37;;;11.37;;
17826;SDS011;9038;48.208;16.308;2024-01-30T02:13:13;17.37;;;10.30;;
17826;SDS011;9038;48.208;16.308;2024-01-30T02:15:15;16.80;;;10.80;;
17826;SDS011;9038;48.208;16.308;2024-01-30T02:17:17;18.53;;;11.60;;
17826;SDS011;9038;48.208;16.308;2024-01-30T02:19:18;15.60;;;10.60;;
17826;SDS011;9038;48.208;16.308;2024-01-30T02:21:21;18.73;;;11.67;;
17826;SDS011;9038;48.208;16.308;2024-01-30T02:23:23;18.40;;;11.60;;
17826;SDS011;9038;48.208;16.308;2024-01-30T02:25:30;16.30;;;11.00;;
17826;SDS011;9038;48.208;16.308;2024-01-30T02:27:32;14.77;;;9.90;;
17826;SDS011;9038;48.208;16.308;2024-01-30T02:29:34;17.23;;;10.50;;
17826;SDS011;9038;48.208;16.308;2024-01-30T02:31:36;17.87;;;11.13;;
17826;SDS011;9038;48.208;16.308;2024-01-30T02:33:37;15.00;;;10.93;;
17826;SDS011;9038;48.208;16.308;2024-01-30T02:35:39;20.90;;;11.27;;
17826;SDS011;9038;48.208;16.308;2024-01-30T02:37:42;17.70;;;10.97;;
17826;SDS011;9038;48.208;16.308;2024-01-30T02:39:44;17.77;;;11.00;;
17826;SDS011;9038;48.208;16.308;2024-01-30T02:41:46;17.13;;;11.00;;
17826;SDS011;9038;48.208;16.308;2024-01-30T02:43:48;19.70;;;11.40;;
17826;SDS011;9038;48.208;16.308;2024-01-30T02:45:50;15.63;;;10.37;;
17826;SDS011;9038;48.208;16.308;2024-01-30T02:47:51;16.60;;;10.67;;
17826;SDS011;9038;48.208;16.308;2024-01-30T02:49:53;17.33;;;11.00;;
17826;SDS011;9038;48.208;16.308;2024-01-30T02:51:55;15.27;;;11.27;;
17826;SDS011;9038;48.208;16.308;2024-01-30T02:53:58;14.63;;;10.47;;
17826;SDS011;9038;48.208;16.308;2024-01-30T02:56:02;19.13;;;11.20;;
17826;SDS011;9038;48.208;16.308;2024-01-30T02:58:05;18.77;;;10.70;;
17826;SDS011;9038;48.208;16.308;2024-01-30T03:00:08;18.10;;;10.80;;
17826;SDS011;9038;48.208;16.308;2024-01-30T03:02:10;19.40;;;10.90;;
17826;SDS011;9038;48.208;16.308;2024-01-30T03:04:12;15.67;;;11.10;;
17826;SDS011;9038;48.208;16.308;2024-01-30T03:06:14;25.80;;;11.23;;
17826;SDS011;9038;48.208;16.308;2024-01-30T03:08:17;15.77;;;10.73;;
17826;SDS011;9038;48.208;16.308;2024-01-30T03:10:20;22.50;;;12.27;;
17826;SDS011;9038;48.208;16.308;2024-01-30T03:12:22;18.87;;;11.67;;
17826;SDS011;9038;48.208;16.308;2024-01-30T03:14:24;16.93;;;11.17;;
17826;SDS011;9038;48.208;16.308;2024-01-30T03:16:26;17.17;;;10.93;;
17826;SDS011;9038;48.208;16.308;2024-01-30T03:18:28;22.47;;;11.33;;
17826;SDS011;9038;48.208;16.308;2024-01-30T03:20:30;15.50;;;10.77;;
17826;SDS011;9038;48.208;16.308;2024-01-30T03:22:31;17.80;;;11.30;;
17826;SDS011;9038;48.208;16.308;2024-01-30T03:24:33;21.80;;;12.10;;
17826;SDS011;9038;48.208;16.308;2024-01-30T03:26:37;19.10;;;11.17;;
17826;SDS011;9038;48.208;16.308;2024-01-30T03:28:38;15.93;;;11.07;;
17826;SDS011;9038;48.208;16.308;2024-01-30T03:30:40;17.73;;;11.23;;
17826;SDS011;9038;48.208;16.308;2024-01-30T03:32:41;16.57;;;10.57;;
17826;SDS011;9038;48.208;16.308;2024-01-30T03:34:44;16.77;;;10.80;;
17826;SDS011;9038;48.208;16.308;2024-01-30T03:36:45;16.83;;;11.53;;
17826;SDS011;9038;48.208;16.308;2024-01-30T03:38:47;17.83;;;11.17;;
17826;SDS011;9038;48.208;16.308;2024-01-30T03:40:49;17.63;;;11.73;;
17826;SDS011;9038;48.208;16.308;2024-01-30T03:42:52;19.53;;;11.97;;
17826;SDS011;9038;48.208;16.308;2024-01-30T03:44:54;14.63;;;10.40;;
17826;SDS011;9038;48.208;16.308;2024-01-30T03:46:57;17.90;;;11.20;;
17826;SDS011;9038;48.208;16.308;2024-01-30T03:48:59;19.33;;;11.30;;
17826;SDS011;9038;48.208;16.308;2024-01-30T03:51:01;19.37;;;11.60;;
17826;SDS011;9038;48.208;16.308;2024-01-30T03:53:03;17.50;;;11.13;;
17826;SDS011;9038;48.208;16.308;2024-01-30T03:55:05;17.07;;;10.87;;
17826;SDS011;9038;48.208;16.308;2024-01-30T03:57:07;12.97;;;10.27;;
17826;SDS011;9038;48.208;16.308;2024-01-30T03:59:10;17.80;;;10.90;;
17826;SDS011;9038;48.208;16.308;2024-01-30T04:01:12;16.97;;;12.03;;
17826;SDS011;9038;48.208;16.308;2024-01-30T04:03:15;19.30;;;11.90;;
17826;SDS011;9038;48.208;16.308;2024-01-30T04:05:17;14.80;;;10.90;;
17826;SDS011;9038;48.208;16.308;2024-01-30T04:07:18;17.90;;;11.00;;
17826;SDS011;9038;48.208;16.308;2024-01-30T04:09:20;18.50;;;11.80;;
17826;SDS011;9038;48.208;16.308;2024-01-30T04:11:22;16.10;;;11.03;;
17826;SDS011;9038;48.208;16.308;2024-01-30T04:13:25;16.13;;;11.23;;
17826;SDS011;9038;48.208;16.308;2024-01-30T04:15:28;16.77;;;11.20;;
17826;SDS011;9038;48.208;16.308;2024-01-30T04:17:30;17.47;;;11.63;;
17826;SDS011;9038;48.208;16.308;2024-01-30T04:19:32;20.90;;;11.20;;
17826;SDS011;9038;48.208;16.308;2024-01-30T04:21:38;22.13;;;12.13;;
17826;SDS011;9038;48.208;16.308;2024-01-30T04:23:40;16.30;;;11.77;;
17826;SDS011;9038;48.208;16.308;2024-01-30T04:25:42;18.73;;;11.93;;
17826;SDS011;9038;48.208;16.308;2024-01-30T04:27:43;17.70;;;11.73;;
17826;SDS011;9038;48.208;16.308;2024-01-30T04:29:45;21.63;;;12.63;;
17826;SDS011;9038;48.208;16.308;2024-01-30T04:31:49;21.30;;;11.60;;
17826;SDS011;9038;48.208;16.308;2024-01-30T04:33:50;17.43;;;11.67;;
17826;SDS011;9038;48.208;16.308;2024-01-30T04:35:52;14.97;;;10.70;;
17826;SDS011;9038;48.208;16.308;2024-01-30T04:37:54;16.60;;;11.53;;
17826;SDS011;9038;48.208;16.308;2024-01-30T04:39:56;24.23;;;12.67;;
17826;SDS011;9038;48.208;16.308;2024-01-30T04:41:58;20.30;;;12.67;;
17826;SDS011;9038;48.208;16.308;2024-01-30T04:44:00;19.37;;;12.70;;
17826;SDS011;9038;48.208;16.308;2024-01-30T04:46:02;18.83;;;12.87;;
17826;SDS011;9038;48.208;16.308;2024-01-30T04:48:06;22.43;;;13.70;;
17826;SDS011;9038;48.208;16.308;2024-01-30T04:50:08;21.53;;;13.73;;
17826;SDS011;9038;48.208;16.308;2024-01-30T04:52:09;16.83;;;12.50;;
17826;SDS011;9038;48.208;16.308;2024-01-30T04:54:11;21.77;;;13.60;;
17826;SDS011;9038;48.208;16.308;2024-01-30T04:56:12;17.47;;;12.23;;
17826;SDS011;9038;48.208;16.308;2024-01-30T04:58:14;58.27;;;25.50;;
17826;SDS011;9038;48.208;16.308;2024-01-30T05:00:16;22.37;;;13.80;;
17826;SDS011;9038;48.208;16.308;2024-01-30T05:02:18;23.17;;;13.50;;
17826;SDS011;9038;48.208;16.308;2024-01-30T05:04:21;23.20;;;12.63;;
17826;SDS011;9038;48.208;16.308;2024-01-30T05:06:26;21.27;;;13.47;;
17826;SDS011;9038;48.208;16.308;2024-01-30T05:08:28;25.10;;;14.33;;
17826;SDS011;9038;48.208;16.308;2024-01-30T05:10:30;21.40;;;13.00;;
17826;SDS011;9038;48.208;16.308;2024-01-30T05:12:31;17.33;;;13.00;;
17826;SDS011;9038;48.208;16.308;2024-01-30T05:14:33;25.57;;;14.23;;
17826;SDS011;9038;48.208;16.308;2024-01-30T05:16:35;20.13;;;13.97;;
17826;SDS011;9038;48.208;16.308;2024-01-30T05:18:36;21.47;;;13.93;;
17826;SDS011;9038;48.208;16.308;2024-01-30T05:20:40;23.07;;;13.23;;
17826;SDS011;9038;48.208;16.308;2024-01-30T05:22:41;22.13;;;13.10;;
17826;SDS011;9038;48.208;16.308;2024-01-30T05:24:45;25.10;;;15.80;;
17826;SDS011;9038;48.208;16.308;2024-01-30T05:26:46;19.77;;;13.33;;
17826;SDS011;9038;48.208;16.308;2024-01-30T05:28:51;22.80;;;14.03;;
17826;SDS011;9038;48.208;16.308;2024-01-30T05:30:53;19.80;;;13.07;;
17826;SDS011;9038;48.208;16.308;2024-01-30T05:32:54;23.10;;;14.60;;
17826;SDS011;9038;48.208;16.308;2024-01-30T05:34:56;24.10;;;14.10;;
17826;SDS011;9038;48.208;16.308;2024-01-30T05:36:59;20.67;;;13.40;;
17826;SDS011;9038;48.208;16.308;2024-01-30T05:39:00;19.70;;;13.77;;
17826;SDS011;9038;48.208;16.308;2024-01-30T05:41:02;22.57;;;13.50;;
17826;SDS011;9038;48.208;16.308;2024-01-30T05:43:04;21.87;;;14.40;;
17826;SDS011;9038;48.208;16.308;2024-01-30T05:45:08;23.97;;;14.63;;
17826;SDS011;9038;48.208;16.308;2024-01-30T05:47:10;22.80;;;14.33;;
17826;SDS011;9038;48.208;16.308;2024-01-30T05:49:11;24.80;;;14.23;;
17826;SDS011;9038;48.208;16.308;2024-01-30T05:51:13;20.73;;;13.10;;
17826;SDS011;9038;48.208;16.308;2024-01-30T05:53:16;21.40;;;13.57;;
17826;SDS011;9038;48.208;16.308;2024-01-30T05:55:17;20.93;;;13.67;;
17826;SDS011;9038;48.208;16.308;2024-01-30T05:57:19;20.77;;;13.37;;
17826;SDS011;9038;48.208;16.308;2024-01-30T05:59:21;19.40;;;13.97;;
17826;SDS011;9038;48.208;16.308;2024-01-30T06:01:23;23.73;;;13.93;;
17826;SDS011;9038;48.208;16.308;2024-01-30T06:03:25;20.73;;;13.97;;
17826;SDS011;9038;48.208;16.308;2024-01-30T06:05:27;19.63;;;12.97;;
17826;SDS011;9038;48.208;16.308;2024-01-30T06:07:29;28.43;;;15.57;;
17826;SDS011;9038;48.208;16.308;2024-01-30T06:09:32;20.67;;;13.80;;
17826;SDS011;9038;48.208;16.308;2024-01-30T06:11:34;24.77;;;14.37;;
17826;SDS011;9038;48.208;16.308;2024-01-30T06:13:35;24.43;;;14.00;;
17826;SDS011;9038;48.208;16.308;2024-01-30T06:15:36;21.77;;;13.63;;
17826;SDS011;9038;48.208;16.308;2024-01-30T06:17:38;19.27;;;13.10;;
17826;SDS011;9038;48.208;16.308;2024-01-30T06:19:40;26.93;;;16.37;;
17826;SDS011;9038;48.208;16.308;2024-01-30T06:21:42;23.57;;;14.03;;
17826;SDS011;9038;48.208;16.308;2024-01-30T06:23:44;18.13;;;12.97;;
17826;SDS011;9038;48.208;16.308;2024-01-30T06:25:47;19.07;;;12.87;;
17826;SDS011;9038;48.208;16.308;2024-01-30T06:27:49;21.83;;;13.70;;
17826;SDS011;9038;48.208;16.308;2024-01-30T06:29:51;23.40;;;15.57;;
17826;SDS011;9038;48.208;16.308;2024-01-30T06:31:53;24.03;;;14.57;;
17826;SDS011;9038;48.208;16.308;2024-01-30T06:33:55;23.23;;;14.40;;
17826;SDS011;9038;48.208;16.308;2024-01-30T06:35:57;22.03;;;14.07;;
17826;SDS011;9038;48.208;16.308;2024-01-30T06:37:58;22.80;;;13.93;;
17826;SDS011;9038;48.208;16.308;2024-01-30T06:40:00;21.20;;;13.20;;
17826;SDS011;9038;48.208;16.308;2024-01-30T06:42:04;25.73;;;14.43;;
17826;SDS011;9038;48.208;16.308;2024-01-30T06:44:06;20.33;;;12.83;;
17826;SDS011;9038;48.208;16.308;2024-01-30T06:46:08;23.23;;;14.00;;
17826;SDS011;9038;48.208;16.308;2024-01-30T06:48:10;19.50;;;13.83;;
17826;SDS011;9038;48.208;16.308;2024-01-30T06:50:12;24.10;;;14.07;;
17826;SDS011;9038;48.208;16.308;2024-01-30T06:52:14;27.87;;;16.77;;
17826;SDS011;9038;48.208;16.308;2024-01-30T06:54:16;25.87;;;14.67;;
17826;SDS011;9038;48.208;16.308;2024-01-30T06:56:17;22.90;;;14.20;;
17826;SDS011;9038;48.208;16.308;2024-01-30T06:58:22;20.17;;;13.20;;
17826;SDS011;9038;48.208;16.308;2024-01-30T07:00:24;21.90;;;14.83;;
17826;SDS011;9038;48.208;16.308;2024-01-30T07:02:25;25.53;;;13.67;;
17826;SDS011;9038;48.208;16.308;2024-01-30T07:04:26;19.47;;;13.77;;
17826;SDS011;9038;48.208;16.308;2024-01-30T07:06:27;22.10;;;13.73;;
17826;SDS011;9038;48.208;16.308;2024-01-30T07:08:29;16.57;;;12.10;;
17826;SDS011;9038;48.208;16.308;2024-01-30T07:10:31;20.70;;;12.93;;
17826;SDS011;9038;48.208;16.308;2024-01-30T07:12:33;22.83;;;13.47;;
17826;SDS011;9038;48.208;16.308;2024-01-30T07:14:36;19.87;;;13.50;;
17826;SDS011;9038;48.208;16.308;2024-01-30T07:16:38;20.17;;;13.27;;
17826;SDS011;9038;48.208;16.308;2024-01-30T07:18:40;19.20;;;13.27;;
17826;SDS011;9038;48.208;16.308;2024-01-30T07:20:42;22.30;;;13.70;;
17826;SDS011;9038;48.208;16.308;2024-01-30T07:22:46;17.80;;;13.40;;
17826;SDS011;9038;48.208;16.308;2024-01-30T07:24:48;16.40;;;12.67;;
17826;SDS011;9038;48.208;16.308;2024-01-30T07:26:52;15.73;;;13.43;;
17826;SDS011;9038;48.208;16.308;2024-01-30T07:28:54;18.97;;;14.03;;
17826;SDS011;9038;48.208;16.308;2024-01-30T07:30:57;21.03;;;13.93;;
17826;SDS011;9038;48.208;16.308;2024-01-30T07:32:58;19.17;;;13.87;;
17826;SDS011;9038;48.208;16.308;2024-01-30T07:35:00;23.00;;;14.60;;
17826;SDS011;9038;48.208;16.308;2024-01-30T07:37:02;22.17;;;14.20;;
17826;SDS011;9038;48.208;16.308;2024-01-30T07:39:04;18.03;;;13.20;;
17826;SDS011;9038;48.208;16.308;2024-01-30T07:41:06;23.80;;;14.37;;
17826;SDS011;9038;48.208;16.308;2024-01-30T07:43:08;22.63;;;13.83;;
17826;SDS011;9038;48.208;16.308;2024-01-30T07:45:10;19.57;;;13.63;;
17826;SDS011;9038;48.208;16.308;2024-01-30T07:47:13;20.57;;;14.30;;
17826;SDS011;9038;48.208;16.308;2024-01-30T07:49:15;21.93;;;13.47;;
17826;SDS011;9038;48.208;16.308;2024-01-30T07:51:17;21.87;;;14.07;;
17826;SDS011;9038;48.208;16.308;2024-01-30T07:53:18;19.70;;;13.13;;
17826;SDS011;9038;48.208;16.308;2024-01-30T07:57:47;20.47;;;13.83;;
17826;SDS011;9038;48.208;16.308;2024-01-30T07:59:49;21.10;;;15.03;;
17826;SDS011;9038;48.208;16.308;2024-01-30T08:01:51;18.07;;;13.27;;
17826;SDS011;9038;48.208;16.308;2024-01-30T08:03:54;15.80;;;12.27;;
17826;SDS011;9038;48.208;16.308;2024-01-30T08:05:56;20.83;;;13.53;;
17826;SDS011;9038;48.208;16.308;2024-01-30T08:07:57;18.67;;;11.93;;
17826;SDS011;9038;48.208;16.308;2024-01-30T08:09:58;22.70;;;13.30;;
17826;SDS011;9038;48.208;16.308;2024-01-30T08:12:00;20.00;;;13.17;;
17826;SDS011;9038;48.208;16.308;2024-01-30T08:14:02;18.50;;;12.73;;
17826;SDS011;9038;48.208;16.308;2024-01-30T08:16:05;17.97;;;13.30;;
17826;SDS011;9038;48.208;16.308;2024-01-30T08:18:07;20.77;;;13.23;;
17826;SDS011;9038;48.208;16.308;2024-01-30T08:20:10;19.10;;;13.03;;
17826;SDS011;9038;48.208;16.308;2024-01-30T08:22:12;17.23;;;12.00;;
17826;SDS011;9038;48.208;16.308;2024-01-30T08:24:14;20.40;;;13.50;;
17826;SDS011;9038;48.208;16.308;2024-01-30T08:26:16;16.63;;;12.77;;
17826;SDS011;9038;48.208;16.308;2024-01-30T08:28:18;17.77;;;12.40;;
17826;SDS011;9038;48.208;16.308;2024-01-30T08:30:19;17.43;;;12.47;;
17826;SDS011;9038;48.208;16.308;2024-01-30T08:32:22;18.53;;;12.17;;
17826;SDS011;9038;48.208;16.308;2024-01-30T08:34:24;18.03;;;13.03;;
17826;SDS011;9038;48.208;16.308;2024-01-30T08:36:27;18.63;;;12.63;;
17826;SDS011;9038;48.208;16.308;2024-01-30T08:38:29;19.27;;;12.90;;
17826;SDS011;9038;48.208;16.308;2024-01-30T08:40:30;19.27;;;12.83;;
17826;SDS011;9038;48.208;16.308;2024-01-30T08:42:32;23.20;;;12.57;;
17826;SDS011;9038;48.208;16.308;2024-01-30T08:44:33;19.07;;;12.80;;
17826;SDS011;9038;48.208;16.308;2024-01-30T08:46:35;29.70;;;14.20;;
17826;SDS011;9038;48.208;16.308;2024-01-30T08:48:37;24.13;;;12.30;;
17826;SDS011;9038;48.208;16.308;2024-01-30T08:50:39;19.87;;;12.97;;
17826;SDS011;9038;48.208;16.308;2024-01-30T08:52:42;20.57;;;13.07;;
17826;SDS011;9038;48.208;16.308;2024-01-30T08:54:44;18.83;;;12.63;;
17826;SDS011;9038;48.208;16.308;2024-01-30T08:56:46;20.73;;;12.80;;
17826;SDS011;9038;48.208;16.308;2024-01-30T08:58:48;18.00;;;12.70;;
17826;SDS011;9038;48.208;16.308;2024-01-30T09:00:50;20.00;;;12.33;;
17826;SDS011;9038;48.208;16.308;2024-01-30T09:02:53;18.50;;;12.87;;
17826;SDS011;9038;48.208;16.308;2024-01-30T09:04:54;19.17;;;13.00;;
17826;SDS011;9038;48.208;16.308;2024-01-30T09:06:55;19.97;;;12.83;;
17826;SDS011;9038;48.208;16.308;2024-01-30T09:08:58;20.93;;;13.30;;
17826;SDS011;9038;48.208;16.308;2024-01-30T09:11:01;21.77;;;13.17;;
17826;SDS011;9038;48.208;16.308;2024-01-30T09:13:05;17.80;;;12.37;;
17826;SDS011;9038;48.208;16.308;2024-01-30T09:15:07;20.77;;;12.60;;
17826;SDS011;9038;48.208;16.308;2024-01-30T09:17:09;20.33;;;12.70;;
17826;SDS011;9038;48.208;16.308;2024-01-30T09:19:12;17.87;;;12.57;;
17826;SDS011;9038;48.208;16.308;2024-01-30T09:21:14;17.17;;;11.90;;
17826;SDS011;9038;48.208;16.308;2024-01-30T09:23:16;26.33;;;13.33;;
17826;SDS011;9038;48.208;16.308;2024-01-30T09:25:21;19.37;;;12.03;;
17826;SDS011;9038;48.208;16.308;2024-01-30T09:27:22;21.33;;;12.60;;
17826;SDS011;9038;48.208;16.308;2024-01-30T09:29:25;19.77;;;12.27;;
17826;SDS011;9038;48.208;16.308;2024-01-30T09:31:25;18.23;;;12.10;;
17826;SDS011;9038;48.208;16.308;2024-01-30T09:33:27;20.83;;;11.90;;
17826;SDS011;9038;48.208;16.308;2024-01-30T09:35:29;17.07;;;11.70;;
17826;SDS011;9038;48.208;16.308;2024-01-30T09:37:31;20.97;;;12.27;;
17826;SDS011;9038;48.208;16.308;2024-01-30T09:39:33;18.57;;;12.00;;
17826;SDS011;9038;48.208;16.308;2024-01-30T09:41:38;17.60;;;12.13;;
17826;SDS011;9038;48.208;16.308;2024-01-30T09:43:47;18.00;;;11.57;;
17826;SDS011;9038;48.208;16.308;2024-01-30T09:45:50;20.67;;;12.23;;
17826;SDS011;9038;48.208;16.308;2024-01-30T09:47:52;18.47;;;11.90;;
17826;SDS011;9038;48.208;16.308;2024-01-30T09:49:54;18.07;;;11.30;;
17826;SDS011;9038;48.208;16.308;2024-01-30T09:51:57;16.63;;;11.00;;
17826;SDS011;9038;48.208;16.308;2024-01-30T09:54:00;19.07;;;11.90;;
17826;SDS011;9038;48.208;16.308;2024-01-30T09:56:03;13.53;;;10.30;;
17826;SDS011;9038;48.208;16.308;2024-01-30T09:58:07;19.20;;;12.40;;
17826;SDS011;9038;48.208;16.308;2024-01-30T10:00:09;18.80;;;12.37;;
17826;SDS011;9038;48.208;16.308;2024-01-30T10:02:12;19.40;;;12.93;;
17826;SDS011;9038;48.208;16.308;2024-01-30T10:04:14;17.23;;;11.53;;
17826;SDS011;9038;48.208;16.308;2024-01-30T10:06:16;17.77;;;12.30;;
17826;SDS011;9038;48.208;16.308;2024-01-30T10:08:18;16.30;;;12.07;;
17826;SDS011;9038;48.208;16.308;2024-01-30T10:10:21;17.90;;;12.30;;
17826;SDS011;9038;48.208;16.308;2024-01-30T10:12:22;21.90;;;12.93;;
17826;SDS011;9038;48.208;16.308;2024-01-30T10:14:25;17.67;;;11.70;;
17826;SDS011;9038;48.208;16.308;2024-01-30T10:16:27;20.80;;;12.67;;
17826;SDS011;9038;48.208;16.308;2024-01-30T10:18:29;19.63;;;12.27;;
17826;SDS011;9038;48.208;16.308;2024-01-30T10:20:31;23.47;;;12.77;;
17826;SDS011;9038;48.208;16.308;2024-01-30T10:22:33;19.10;;;11.97;;
17826;SDS011;9038;48.208;16.308;2024-01-30T10:24:35;21.97;;;12.47;;
17826;SDS011;9038;48.208;16.308;2024-01-30T10:26:37;17.60;;;11.80;;
17826;SDS011;9038;48.208;16.308;2024-01-30T10:28:39;17.93;;;11.50;;
17826;SDS011;9038;48.208;16.308;2024-01-30T10:30:42;22.33;;;12.40;;
17826;SDS011;9038;48.208;16.308;2024-01-30T10:32:44;19.47;;;12.63;;
17826;SDS011;9038;48.208;16.308;2024-01-30T10:34:46;19.33;;;12.90;;
17826;SDS011;9038;48.208;16.308;2024-01-30T10:36:48;15.83;;;11.50;;
17826;SDS011;9038;48.208;16.308;2024-01-30T10:38:50;16.60;;;11.70;;
17826;SDS011;9038;48.208;16.308;2024-01-30T10:40:54;35.57;;;18.33;;
17826;SDS011;9038;48.208;16.308;2024-01-30T10:42:58;22.87;;;12.67;;
17826;SDS011;9038;48.208;16.308;2024-01-30T10:45:04;18.97;;;11.83;;
17826;SDS011;9038;48.208;16.308;2024-01-30T10:47:11;20.13;;;11.80;;
17826;SDS011;9038;48.208;16.308;2024-01-30T10:49:14;18.70;;;12.00;;
17826;SDS011;9038;48.208;16.308;2024-01-30T10:51:17;16.17;;;11.27;;
17826;SDS011;9038;48.208;16.308;2024-01-30T10:53:19;17.10;;;11.73;;
17826;SDS011;9038;48.208;16.308;2024-01-30T10:55:23;17.40;;;11.57;;
17826;SDS011;9038;48.208;16.308;2024-01-30T10:57:28;21.47;;;12.43;;
17826;SDS011;9038;48.208;16.308;2024-01-30T10:59:30;25.50;;;13.93;;
17826;SDS011;9038;48.208;16.308;2024-01-30T11:01:33;18.30;;;11.87;;
17826;SDS011;9038;48.208;16.308;2024-01-30T11:03:37;14.87;;;11.20;;
17826;SDS011;9038;48.208;16.308;2024-01-30T11:05:40;18.03;;;11.57;;
17826;SDS011;9038;48.208;16.308;2024-01-30T11:07:42;16.07;;;11.90;;
17826;SDS011;9038;48.208;16.308;2024-01-30T11:09:50;17.57;;;11.60;;
17826;SDS011;9038;48.208;16.308;2024-01-30T11:11:51;16.93;;;11.37;;
17826;SDS011;9038;48.208;16.308;2024-01-30T11:14:00;18.60;;;11.80;;
17826;SDS011;9038;48.208;16.308;2024-01-30T11:16:03;14.90;;;11.07;;
17826;SDS011;9038;48.208;16.308;2024-01-30T11:18:05;14.30;;;10.53;;
17826;SDS011;9038;48.208;16.308;2024-01-30T11:20:10;14.27;;;10.93;;
17826;SDS011;9038;48.208;16.308;2024-01-30T11:22:12;16.77;;;10.63;;
17826;SDS011;9038;48.208;16.308;2024-01-30T11:24:14;14.30;;;10.20;;
17826;SDS011;9038;48.208;16.308;2024-01-30T11:26:16;17.80;;;12.33;;
17826;SDS011;9038;48.208;16.308;2024-01-30T11:28:18;22.07;;;12.27;;
17826;SDS011;9038;48.208;16.308;2024-01-30T11:30:22;10.80;;;9.27;;
17826;SDS011;9038;48.208;16.308;2024-01-30T11:32:24;16.30;;;10.27;;
17826;SDS011;9038;48.208;16.308;2024-01-30T11:34:26;14.13;;;9.80;;
17826;SDS011;9038;48.208;16.308;2024-01-30T11:36:29;17.00;;;9.53;;
17826;SDS011;9038;48.208;16.308;2024-01-30T11:38:37;12.23;;;9.87;;
17826;SDS011;9038;48.208;16.308;2024-01-30T11:40:39;11.90;;;9.30;;
17826;SDS011;9038;48.208;16.308;2024-01-30T11:42:41;16.13;;;9.90;;
17826;SDS011;9038;48.208;16.308;2024-01-30T11:44:46;15.93;;;9.63;;
17826;SDS011;9038;48.208;16.308;2024-01-30T11:46:48;14.00;;;9.60;;
17826;SDS011;9038;48.208;16.308;2024-01-30T11:48:50;13.83;;;9.93;;
17826;SDS011;9038;48.208;16.308;2024-01-30T11:50:52;13.77;;;9.63;;
17826;SDS011;9038;48.208;16.308;2024-01-30T11:52:55;13.87;;;9.90;;
17826;SDS011;9038;48.208;16.308;2024-01-30T11:54:56;14.20;;;10.07;;
17826;SDS011;9038;48.208;16.308;2024-01-30T11:56:58;14.33;;;9.37;;